Time;durP1;ratioP1;P1;durP2;ratioP2;P2;SDS_P1;SDS_P2;PMS_P1;PMS_P2;Temp;Humidity;BMP_temperature;BMP_pressure;BME280_temperature;BME280_humidity;BME280_pressure;Samples;Min_cycle;Max_cycle;Signal;HPM_P1;HPM_P2
2021/09/13 00:02:08;;;;;;;3.55;3.25;;;;;;;18.21;76.48;96895.78;5011220;28;20183;-59
2021/09/13 00:04:34;;;;;;;3.30;3.03;;;;;;;18.25;76.39;96902.91;5008797;28;20180;-59
2021/09/13 00:06:59;;;;;;;3.07;2.83;;;;;;;18.32;76.14;96904.50;4999183;28;20191;-60
2021/09/13 00:09:25;;;;;;;3.10;2.80;;;;;;;18.33;76.07;96898.13;5004769;28;20212;-60
2021/09/13 00:11:51;;;;;;;5.43;3.23;;;;;;;18.34;75.62;96892.50;5005812;28;20274;-60
2021/09/13 00:14:17;;;;;;;3.87;3.50;;;;;;;18.29;75.54;96896.00;4997436;28;20207;-60
2021/09/13 00:16:43;;;;;;;3.83;3.53;;;;;;;18.29;74.94;96896.00;5009688;28;20184;-59
2021/09/13 00:19:08;;;;;;;3.17;2.97;;;;;;;18.00;75.86;96895.03;5002645;28;20213;-59
2021/09/13 00:21:34;;;;;;;5.07;3.17;;;;;;;18.03;76.05;96891.06;4995001;28;20191;-59
2021/09/13 00:23:59;;;;;;;3.80;3.00;;;;;;;17.94;76.44;96890.06;5007864;28;20195;-60
2021/09/13 00:26:25;;;;;;;3.50;2.87;;;;;;;17.86;76.70;96883.44;5009388;28;20176;-59
2021/09/13 00:28:50;;;;;;;3.07;2.87;;;;;;;17.80;77.30;96882.66;5001867;28;20188;-59
2021/09/13 00:31:16;;;;;;;3.30;3.00;;;;;;;17.87;76.88;96885.03;5001320;28;20199;-60
2021/09/13 00:33:41;;;;;;;3.33;3.03;;;;;;;17.86;76.93;96886.09;5009265;28;20749;-60
2021/09/13 00:36:06;;;;;;;3.03;2.83;;;;;;;17.73;77.60;96878.69;5001477;28;20258;-60
2021/09/13 00:38:33;;;;;;;3.30;3.00;;;;;;;17.64;78.25;96886.41;5001333;28;20188;-60
2021/09/13 00:40:58;;;;;;;3.33;3.03;;;;;;;17.65;78.53;96879.25;4993987;28;20180;-62
2021/09/13 00:43:23;;;;;;;4.15;3.08;;;;;;;17.63;78.51;96882.16;4993626;28;20237;-60
2021/09/13 00:45:49;;;;;;;4.03;3.20;;;;;;;17.61;78.62;96878.22;5008103;28;20211;-60
2021/09/13 00:48:14;;;;;;;3.40;3.13;;;;;;;17.57;78.70;96875.25;5002109;28;20196;-60
2021/09/13 00:50:40;;;;;;;3.63;3.30;;;;;;;17.56;78.87;96880.81;5001335;28;20258;-60
2021/09/13 00:53:05;;;;;;;5.27;3.10;;;;;;;17.57;78.89;96885.84;5000218;28;20203;-60
2021/09/13 00:55:31;;;;;;;3.63;3.00;;;;;;;17.55;79.09;96881.91;5009837;28;20526;-60
2021/09/13 00:57:57;;;;;;;4.00;3.30;;;;;;;17.46;79.93;96886.94;5004407;28;20187;-59
2021/09/13 01:00:23;;;;;;;3.70;3.30;;;;;;;17.49;79.78;96881.13;5011093;28;20231;-59
2021/09/13 01:02:49;;;;;;;3.10;2.87;;;;;;;17.55;79.65;96887.22;5004561;28;20191;-60
2021/09/13 01:05:14;;;;;;;3.13;2.93;;;;;;;17.54;79.91;96885.63;5010482;28;20274;-60
2021/09/13 01:07:40;;;;;;;3.77;3.47;;;;;;;17.56;80.11;96880.81;5003045;28;20670;-60
2021/09/13 01:10:07;;;;;;;4.23;3.83;;;;;;;17.61;79.81;96873.69;5007811;28;20554;-60
2021/09/13 01:12:33;;;;;;;5.33;4.73;;;;;;;17.63;79.62;96886.69;4994810;28;20537;-60
2021/09/13 01:14:59;;;;;;;6.03;5.20;;;;;;;17.66;79.67;96870.25;5005753;28;20652;-59
2021/09/13 01:17:24;;;;;;;5.60;4.80;;;;;;;17.62;79.79;96875.28;5001439;28;20266;-59
2021/09/13 01:19:49;;;;;;;5.33;4.20;;;;;;;17.72;79.50;96872.59;5008269;28;20192;-59
2021/09/13 01:22:18;;;;;;;4.63;4.10;;;;;;;17.70;79.53;96871.28;4997781;28;20544;-60
2021/09/13 01:24:44;;;;;;;6.37;4.67;;;;;;;17.60;80.06;96873.97;5007306;28;20196;-60
2021/09/13 01:27:10;;;;;;;4.77;4.37;;;;;;;17.53;80.19;96876.06;4993473;28;20540;-59
2021/09/13 01:29:36;;;;;;;4.70;4.30;;;;;;;17.39;80.73;96868.66;5002623;28;20195;-60
2021/09/13 01:32:02;;;;;;;4.23;3.83;;;;;;;17.28;81.33;96869.72;4999873;28;20188;-60
2021/09/13 01:34:28;;;;;;;4.23;3.83;;;;;;;17.23;81.45;96876.91;4993490;28;20198;-60
2021/09/13 01:36:54;;;;;;;4.80;4.40;;;;;;;17.17;81.89;96868.16;5011543;28;20175;-60
2021/09/13 01:39:20;;;;;;;4.50;4.10;;;;;;;17.03;82.28;96870.56;5005566;28;20595;-61
2021/09/13 01:41:46;;;;;;;4.17;3.87;;;;;;;17.09;82.02;96862.63;5001110;28;20203;-61
2021/09/13 01:44:13;;;;;;;3.40;3.13;;;;;;;16.93;82.40;96865.28;4998026;28;20192;-59
2021/09/13 01:46:40;;;;;;;3.80;3.50;;;;;;;16.85;82.91;96862.34;5008899;28;20186;-59
2021/09/13 01:49:07;;;;;;;4.23;3.73;;;;;;;16.85;82.69;96870.28;4993465;28;20211;-59
2021/09/13 01:51:33;;;;;;;5.47;3.60;;;;;;;16.95;82.19;96873.72;5003186;28;20183;-67
2021/09/13 01:53:59;;;;;;;3.70;3.40;;;;;;;16.84;82.83;96869.47;4997336;28;20552;-61
2021/09/13 01:56:25;;;;;;;3.30;3.00;;;;;;;16.69;83.73;96872.13;4996243;28;20183;-60
2021/09/13 01:58:50;;;;;;;4.87;3.20;;;;;;;16.69;83.70;96866.03;5012545;28;20632;-60
2021/09/13 02:01:18;;;;;;;4.43;3.30;;;;;;;16.74;83.39;96861.53;5008012;28;20645;-59
2021/09/13 02:03:43;;;;;;;4.47;3.37;;;;;;;16.65;83.97;96855.19;5010730;28;20180;-59
2021/09/13 02:06:08;;;;;;;3.67;3.37;;;;;;;16.66;83.78;96855.97;5004599;28;20620;-61
2021/09/13 02:08:34;;;;;;;4.10;3.60;;;;;;;16.53;84.30;96850.13;5003874;28;20660;-59
2021/09/13 02:11:00;;;;;;;3.47;3.17;;;;;;;16.41;85.11;96848.75;5012499;28;20190;-59
2021/09/13 02:13:25;;;;;;;4.90;4.00;;;;;;;16.45;85.19;96852.47;5001097;28;20214;-59
2021/09/13 02:15:50;;;;;;;5.43;3.97;;;;;;;16.51;84.75;96846.13;5007703;28;20180;-59
2021/09/13 02:18:16;;;;;;;4.50;4.07;;;;;;;16.45;85.07;96850.63;4996550;28;20192;-59
2021/09/13 02:20:41;;;;;;;4.97;4.47;;;;;;;16.63;84.42;96852.78;5010703;28;20192;-60
2021/09/13 02:23:07;;;;;;;6.20;4.70;;;;;;;16.50;85.07;96849.81;5005298;28;20533;-60
2021/09/13 02:25:32;;;;;;;4.80;4.40;;;;;;;16.28;85.86;96842.09;5003192;28;20640;-59
2021/09/13 02:27:57;;;;;;;4.87;4.17;;;;;;;16.15;87.05;96854.00;5010442;28;20241;-61
2021/09/13 02:30:23;;;;;;;4.70;4.30;;;;;;;16.20;86.67;96850.56;4998798;28;20180;-60
2021/09/13 02:32:48;;;;;;;7.27;4.93;;;;;;;16.29;86.35;96854.28;5009082;28;20331;-59
2021/09/13 02:35:14;;;;;;;5.67;5.07;;;;;;;16.13;87.11;96855.28;5007993;28;20214;-60
2021/09/13 02:37:39;;;;;;;6.77;5.50;;;;;;;16.17;87.49;96853.72;4999825;28;20273;-60
2021/09/13 02:40:06;;;;;;;5.43;4.93;;;;;;;16.16;87.44;96847.63;5011161;28;20246;-59
2021/09/13 02:42:31;;;;;;;6.83;5.17;;;;;;;16.22;87.33;96851.88;5000770;28;20226;-60
2021/09/13 02:44:57;;;;;;;5.23;4.73;;;;;;;16.18;87.78;96845.53;5006885;28;20207;-59
2021/09/13 02:47:22;;;;;;;5.83;5.23;;;;;;;16.33;86.94;96844.00;5006864;28;20221;-65
2021/09/13 02:49:48;;;;;;;5.20;4.70;;;;;;;16.12;88.38;96846.56;4999634;28;20199;-59
2021/09/13 02:52:13;;;;;;;6.43;5.13;;;;;;;16.17;88.50;96848.44;5008816;28;20192;-60
2021/09/13 02:54:39;;;;;;;6.13;5.33;;;;;;;16.00;89.87;96850.47;4996163;28;20211;-59
2021/09/13 02:57:04;;;;;;;8.57;5.83;;;;;;;16.05;90.20;96846.00;5007728;28;20270;-62
2021/09/13 02:59:29;;;;;;;8.57;6.03;;;;;;;16.09;90.21;96841.81;4998772;28;20187;-63
2021/09/13 03:01:55;;;;;;;9.37;5.83;;;;;;;16.10;90.60;96846.06;5010642;28;20191;-60
2021/09/13 03:04:20;;;;;;;6.30;5.70;;;;;;;16.06;91.02;96849.44;5003780;28;20187;-60
2021/09/13 03:06:45;;;;;;;6.57;5.87;;;;;;;16.05;91.48;96847.88;5002612;28;20664;-60
2021/09/13 03:09:11;;;;;;;6.27;5.63;;;;;;;16.05;91.48;96851.28;5010196;28;20546;-60
2021/09/13 03:11:36;;;;;;;7.93;6.43;;;;;;;16.12;91.20;96843.13;4996056;28;20649;-60
2021/09/13 03:14:02;;;;;;;7.53;5.57;;;;;;;16.30;90.27;96844.50;5000750;28;20203;-60
2021/09/13 03:16:27;;;;;;;7.23;5.40;;;;;;;16.35;89.60;96839.22;5005391;28;20184;-59
2021/09/13 03:18:52;;;;;;;7.03;5.90;;;;;;;16.26;90.15;96840.78;5006980;28;20198;-59
2021/09/13 03:21:18;;;;;;;7.23;6.37;;;;;;;16.26;90.48;96846.88;4997642;28;20199;-59
2021/09/13 03:23:43;;;;;;;7.20;5.93;;;;;;;16.28;90.18;96841.31;5011654;28;20199;-59
2021/09/13 03:26:09;;;;;;;10.67;6.03;;;;;;;16.32;90.00;96842.41;5000465;28;20184;-66
2021/09/13 03:28:34;;;;;;;6.60;5.80;;;;;;;16.22;90.73;96841.31;5005130;28;20560;-59
2021/09/13 03:31:04;;;;;;;8.83;6.17;;;;;;;16.21;90.97;96842.38;5010597;28;20229;-59
2021/09/13 03:33:29;;;;;;;6.87;5.47;;;;;;;16.41;89.92;96836.31;5001511;28;20203;-59
2021/09/13 03:35:55;;;;;;;7.23;5.33;;;;;;;16.43;89.57;96838.72;5008593;28;20546;-59
2021/09/13 03:38:20;;;;;;;7.10;5.93;;;;;;;16.40;89.75;96833.94;5005720;28;20187;-60
2021/09/13 03:40:46;;;;;;;5.83;5.33;;;;;;;16.44;89.45;96835.78;5004792;28;20259;-60
2021/09/13 03:43:12;;;;;;;5.90;5.30;;;;;;;16.45;89.25;96844.53;5001248;28;20543;-59
2021/09/13 03:45:37;;;;;;;6.07;5.43;;;;;;;16.50;89.03;96847.19;5007542;28;20187;-59
2021/09/13 03:48:03;;;;;;;6.37;5.70;;;;;;;16.42;89.25;96845.06;5005299;28;20183;-61
2021/09/13 03:50:28;;;;;;;6.17;5.30;;;;;;;16.37;90.02;96845.84;4997255;28;20283;-60
2021/09/13 03:52:53;;;;;;;6.73;5.70;;;;;;;16.43;89.36;96841.38;5005140;28;20257;-59
2021/09/13 03:55:19;;;;;;;6.97;5.27;;;;;;;16.49;89.36;96840.31;5002036;28;20191;-66
2021/09/13 03:57:44;;;;;;;7.57;5.20;;;;;;;16.48;89.05;96839.53;5008771;28;20183;-60
2021/09/13 04:00:10;;;;;;;6.67;5.60;;;;;;;16.40;89.35;96842.66;4996946;28;20249;-60
2021/09/13 04:02:37;;;;;;;6.10;5.47;;;;;;;16.38;89.32;96839.50;5005731;28;20648;-60
2021/09/13 04:05:02;;;;;;;6.17;5.30;;;;;;;16.29;90.10;96838.41;4996803;28;20598;-60
2021/09/13 04:07:36;;;;;;;6.07;5.43;;;;;;;16.31;89.70;96830.22;4999948;28;20191;-60
2021/09/13 04:10:16;;;;;;;6.83;5.67;;;;;;;16.36;89.61;96828.38;4998369;28;20187;-60
2021/09/13 04:12:41;;;;;;;6.50;4.93;;;;;;;16.30;89.60;96826.78;5007738;28;20572;-60
2021/09/13 04:15:07;;;;;;;6.13;5.23;;;;;;;16.20;90.01;96826.75;5005713;28;20187;-60
2021/09/13 04:17:33;;;;;;;5.47;4.97;;;;;;;16.18;90.09;96823.56;5006120;28;20187;-59
2021/09/13 04:19:58;;;;;;;4.80;4.37;;;;;;;16.16;89.93;96825.69;4999094;28;20214;-60
2021/09/13 04:22:23;;;;;;;5.70;4.93;;;;;;;16.03;90.75;96826.19;5005424;28;20517;-68
2021/09/13 04:24:49;;;;;;;8.57;5.23;;;;;;;15.92;91.54;96822.72;5001294;28;20543;-60
2021/09/13 04:27:14;;;;;;;8.03;5.90;;;;;;;15.86;91.92;96818.47;5008732;28;20187;-60
2021/09/13 04:29:39;;;;;;;6.80;5.40;;;;;;;15.99;91.05;96820.63;4996478;28;20188;-59
2021/09/13 04:32:05;;;;;;;7.23;6.13;;;;;;;15.93;91.17;96816.38;5006302;28;20214;-59
2021/09/13 04:34:31;;;;;;;7.70;6.00;;;;;;;15.92;91.15;96814.78;5001522;28;20183;-60
2021/09/13 04:36:56;;;;;;;11.20;5.93;;;;;;;15.77;92.27;96822.66;5005826;28;20261;-60
2021/09/13 04:39:21;;;;;;;6.70;5.70;;;;;;;15.72;92.68;96825.25;4996848;28;20227;-62
2021/09/13 04:41:47;;;;;;;6.67;5.47;;;;;;;15.64;93.36;96823.13;5012175;28;20183;-59
2021/09/13 04:44:12;;;;;;;5.07;4.57;;;;;;;15.60;93.66;96819.41;5004015;28;20202;-59
2021/09/13 04:46:38;;;;;;;6.47;4.93;;;;;;;15.68;93.24;96821.56;5001695;28;20676;-59
2021/09/13 04:49:03;;;;;;;6.57;5.70;;;;;;;15.61;93.44;96827.06;4994097;28;20645;-59
2021/09/13 04:51:29;;;;;;;6.67;5.37;;;;;;;15.75;92.73;96817.63;5009237;28;20195;-65
2021/09/13 04:53:54;;;;;;;6.07;5.47;;;;;;;15.89;91.85;96827.69;4995815;28;20253;-60
2021/09/13 04:56:20;;;;;;;6.13;5.20;;;;;;;15.98;91.09;96821.69;5004897;28;20354;-59
2021/09/13 04:58:45;;;;;;;5.33;4.83;;;;;;;15.87;91.59;96816.63;5002842;28;20185;-59
2021/09/13 05:01:11;;;;;;;6.13;5.27;;;;;;;15.80;92.19;96817.66;5012226;28;20274;-59
2021/09/13 05:03:36;;;;;;;6.90;5.40;;;;;;;15.86;92.04;96822.94;4999523;28;20644;-59
2021/09/13 05:06:02;;;;;;;5.70;5.10;;;;;;;15.85;91.98;96822.16;4993481;28;20219;-61
2021/09/13 05:08:28;;;;;;;5.83;5.23;;;;;;;16.01;90.76;96823.78;5006932;28;20641;-63
2021/09/13 05:10:53;;;;;;;5.67;5.10;;;;;;;15.91;91.47;96817.69;5005046;28;20188;-59
2021/09/13 05:13:19;;;;;;;7.17;5.00;;;;;;;16.04;90.75;96827.78;5001507;28;20211;-60
2021/09/13 05:15:44;;;;;;;6.27;4.97;;;;;;;15.92;91.73;96827.19;4993606;28;20196;-59
2021/09/13 05:18:09;;;;;;;6.37;5.73;;;;;;;16.00;91.24;96829.34;5007971;28;20636;-60
2021/09/13 05:20:35;;;;;;;6.03;4.93;;;;;;;15.93;91.52;96834.09;4997059;28;20234;-60
2021/09/13 05:23:02;;;;;;;5.70;4.30;;;;;;;16.02;91.05;96840.44;5010781;28;20187;-60
2021/09/13 05:25:27;;;;;;;5.77;4.33;;;;;;;16.18;90.11;96836.81;5003708;28;20664;-59
2021/09/13 05:27:53;;;;;;;4.83;4.40;;;;;;;16.22;89.60;96835.22;4997871;28;20196;-59
2021/09/13 05:30:18;;;;;;;5.33;4.83;;;;;;;16.20;89.68;96835.50;5010792;28;20197;-60
2021/09/13 05:32:44;;;;;;;5.63;4.50;;;;;;;16.13;90.17;96842.06;4999151;28;20250;-60
2021/09/13 05:35:10;;;;;;;7.40;5.07;;;;;;;16.27;89.68;96843.19;4996918;28;20287;-60
2021/09/13 05:37:36;;;;;;;10.97;5.33;;;;;;;16.36;89.15;96838.97;5008433;28;20333;-59
2021/09/13 05:40:04;;;;;;;6.07;4.57;;;;;;;16.56;88.21;96844.28;4998831;28;20228;-60
2021/09/13 05:42:29;;;;;;;5.60;5.03;;;;;;;16.67;87.36;96855.69;5011513;28;20692;-61
2021/09/13 05:44:55;;;;;;;5.23;4.77;;;;;;;16.81;86.68;96851.50;5002788;28;20195;-62
2021/09/13 05:47:20;;;;;;;5.23;4.47;;;;;;;16.79;86.89;96850.94;5005946;28;20184;-59
2021/09/13 05:49:45;;;;;;;7.70;4.03;;;;;;;16.90;86.33;96849.91;5006271;28;20183;-59
2021/09/13 05:52:11;;;;;;;4.87;4.43;;;;;;;16.88;86.47;96857.31;4998611;28;20211;-60
2021/09/13 05:54:36;;;;;;;5.07;4.37;;;;;;;16.90;86.32;96854.41;5001056;28;20191;-59
2021/09/13 05:57:02;;;;;;;6.33;4.43;;;;;;;16.76;87.43;96859.44;4996498;28;20184;-60
2021/09/13 05:59:27;;;;;;;4.50;4.10;;;;;;;16.86;86.92;96856.78;5006500;28;20224;-60
2021/09/13 06:01:52;;;;;;;4.90;4.40;;;;;;;17.04;86.33;96852.81;5004434;28;20184;-61
2021/09/13 06:04:18;;;;;;;4.70;4.27;;;;;;;17.13;85.85;96850.41;5011841;28;20276;-60
2021/09/13 06:06:44;;;;;;;4.77;4.30;;;;;;;17.21;85.45;96850.69;4999557;28;20188;-61
2021/09/13 06:09:10;;;;;;;5.10;4.60;;;;;;;17.28;85.30;96850.41;5012889;28;20271;-61
2021/09/13 06:11:36;;;;;;;4.60;4.20;;;;;;;17.43;84.35;96847.75;5005970;28;20290;-61
2021/09/13 06:14:02;;;;;;;5.10;4.13;;;;;;;17.38;84.45;96848.56;5003703;28;20632;-60
2021/09/13 06:16:27;;;;;;;4.53;3.80;;;;;;;17.38;84.14;96859.16;5009494;28;20189;-60
2021/09/13 06:18:53;;;;;;;4.97;4.57;;;;;;;17.34;83.89;96852.78;4997908;28;20192;-60
2021/09/13 06:21:19;;;;;;;4.67;4.27;;;;;;;17.38;83.83;96855.69;5011839;28;20590;-60
2021/09/13 06:23:45;;;;;;;4.83;4.33;;;;;;;17.33;84.05;96861.78;4996148;28;20216;-60
2021/09/13 06:26:11;;;;;;;6.50;4.90;;;;;;;17.44;83.65;96854.63;4996209;28;20238;-61
2021/09/13 06:28:37;;;;;;;4.53;4.07;;;;;;;17.52;83.03;96861.22;4996373;28;20310;-60
2021/09/13 06:31:02;;;;;;;5.00;4.37;;;;;;;17.50;83.41;96864.13;5013154;28;20273;-59
2021/09/13 06:33:29;;;;;;;4.53;4.13;;;;;;;17.54;83.24;96867.84;4997934;28;20202;-64
2021/09/13 06:35:54;;;;;;;5.17;4.67;;;;;;;17.56;83.59;96859.63;5008430;28;20234;-60
2021/09/13 06:38:19;;;;;;;4.90;4.40;;;;;;;17.75;83.43;96860.66;5004178;28;20655;-60
2021/09/13 06:40:45;;;;;;;5.27;4.70;;;;;;;18.09;82.11;96856.31;5001889;28;20231;-64
2021/09/13 06:43:14;;;;;;;5.00;4.57;;;;;;;18.41;80.80;96858.53;5010818;28;20230;-60
2021/09/13 06:45:44;;;;;;;4.80;4.37;;;;;;;18.73;79.40;96859.94;5002021;28;20241;-62
2021/09/13 06:48:11;;;;;;;4.10;3.80;;;;;;;18.97;77.71;96869.59;5006505;28;20171;-60
2021/09/13 06:50:39;;;;;;;7.20;4.15;;;;;;;19.06;77.01;96859.16;5018959;28;20195;-60
2021/09/13 06:53:05;;;;;;;5.10;4.45;;;;;;;19.24;76.59;96868.28;5004823;28;20210;-60
2021/09/13 06:55:31;;;;;;;4.82;3.83;;;;;;;19.49;73.87;96858.28;4998967;28;20251;-70
2021/09/13 06:57:57;;;;;;;5.22;4.03;;;;;;;19.63;73.85;96863.69;5005561;28;20546;-65
2021/09/13 07:00:23;;;;;;;4.53;3.92;;;;;;;19.81;72.60;96867.50;5000115;28;20527;-60
2021/09/13 07:02:49;;;;;;;4.47;3.40;;;;;;;20.12;71.56;96868.72;4996954;28;20215;-60
2021/09/13 07:05:14;;;;;;;6.25;3.22;;;;;;;20.27;70.97;96870.41;5011035;28;20641;-64
2021/09/13 07:07:40;;;;;;;4.15;3.30;;;;;;;20.38;70.12;96874.56;5005539;28;20202;-60
2021/09/13 07:10:07;;;;;;;3.00;2.70;;;;;;;20.67;67.61;96872.53;5002161;28;20242;-63
2021/09/13 07:12:34;;;;;;;5.40;2.72;;;;;;;20.81;66.41;96872.59;4997942;28;20687;-60
2021/09/13 07:14:59;;;;;;;2.47;2.28;;;;;;;20.99;64.79;96868.34;5003978;28;20217;-60
2021/09/13 07:17:25;;;;;;;3.00;2.80;;;;;;;20.93;65.13;96872.97;5002656;28;20203;-60
2021/09/13 07:19:51;;;;;;;2.47;2.35;;;;;;;20.85;65.03;96872.81;4999439;28;20214;-60
2021/09/13 07:22:17;;;;;;;3.35;3.00;;;;;;;20.48;66.35;96870.97;5000098;28;20191;-60
2021/09/13 07:24:44;;;;;;;3.00;2.80;;;;;;;20.45;67.54;96874.97;5000360;28;20209;-60
2021/09/13 07:27:10;;;;;;;3.05;2.75;;;;;;;20.11;68.02;96875.13;5006154;28;20198;-60
2021/09/13 07:29:36;;;;;;;2.97;2.78;;;;;;;20.52;68.45;96880.75;4998566;28;20286;-60
2021/09/13 07:32:02;;;;;;;3.10;2.78;;;;;;;20.77;68.19;96876.13;5006586;28;20685;-63
2021/09/13 07:34:28;;;;;;;4.95;3.15;;;;;;;20.67;68.43;96874.44;4999829;28;20218;-60
2021/09/13 07:36:55;;;;;;;3.58;3.28;;;;;;;20.55;70.32;96877.53;5006895;28;20194;-60
2021/09/13 07:39:21;;;;;;;3.63;3.33;;;;;;;20.56;70.10;96879.06;4996527;28;20315;-60
2021/09/13 07:41:47;;;;;;;3.03;2.80;;;;;;;20.30;71.25;96883.13;5000295;28;20239;-60
2021/09/13 07:44:12;;;;;;;3.92;2.95;;;;;;;20.39;71.36;96889.47;5004134;28;20583;-60
2021/09/13 07:46:37;;;;;;;5.20;3.15;;;;;;;20.39;71.69;96886.00;5000336;28;20199;-60
2021/09/13 07:49:03;;;;;;;4.40;2.75;;;;;;;20.21;71.41;96890.19;5010462;28;20179;-64
2021/09/13 07:51:28;;;;;;;3.10;2.90;;;;;;;20.02;72.19;96903.44;5003156;28;20188;-60
2021/09/13 07:53:54;;;;;;;3.25;2.78;;;;;;;20.12;72.20;96895.31;4993623;28;20307;-60
2021/09/13 07:56:19;;;;;;;3.10;2.60;;;;;;;20.29;70.67;96900.97;4994542;28;20196;-60
2021/09/13 07:58:45;;;;;;;3.45;3.15;;;;;;;20.22;71.34;96903.22;5010067;28;20195;-60
2021/09/13 08:01:10;;;;;;;3.42;3.00;;;;;;;20.52;69.93;96903.91;5000921;28;20183;-62
2021/09/13 08:03:36;;;;;;;4.22;3.38;;;;;;;20.21;71.64;96906.16;5002098;28;20650;-60
2021/09/13 08:06:01;;;;;;;3.22;2.90;;;;;;;20.14;71.87;96898.50;4993541;28;20191;-61
2021/09/13 08:08:26;;;;;;;3.05;2.85;;;;;;;20.29;72.27;96908.97;5007489;28;20581;-60
2021/09/13 08:10:52;;;;;;;4.25;3.05;;;;;;;20.33;71.42;96906.56;4998052;28;20643;-60
2021/09/13 08:13:17;;;;;;;5.07;2.85;;;;;;;19.87;72.45;96901.75;5011094;28;20198;-60
2021/09/13 08:15:43;;;;;;;3.58;3.17;;;;;;;19.95;73.33;96915.50;5002473;28;20597;-60
2021/09/13 08:18:08;;;;;;;3.42;3.00;;;;;;;20.26;71.36;96914.06;5003500;28;20195;-64
2021/09/13 08:20:33;;;;;;;3.20;3.00;;;;;;;20.32;70.67;96910.31;4994365;28;20188;-66
2021/09/13 08:22:59;;;;;;;4.43;2.88;;;;;;;20.46;70.02;96918.38;5003960;28;20254;-60
2021/09/13 08:25:24;;;;;;;3.55;3.22;;;;;;;20.37;69.95;96925.41;4999652;28;20215;-60
2021/09/13 08:27:49;;;;;;;3.88;3.17;;;;;;;20.60;69.73;96922.72;4995785;28;20270;-60
2021/09/13 08:30:15;;;;;;;3.50;2.85;;;;;;;20.54;69.38;96923.06;5002347;28;20223;-60
2021/09/13 08:32:40;;;;;;;3.83;3.20;;;;;;;20.44;69.67;96926.66;4993787;28;20203;-60
2021/09/13 08:35:06;;;;;;;4.78;3.10;;;;;;;20.70;68.95;96932.44;5009630;28;20193;-60
2021/09/13 08:37:32;;;;;;;3.60;3.30;;;;;;;20.72;67.69;96923.09;5000170;28;20219;-60
2021/09/13 08:39:59;;;;;;;3.58;3.28;;;;;;;20.66;67.96;96916.25;4997057;28;20616;-60
2021/09/13 08:42:25;;;;;;;7.63;3.13;;;;;;;20.10;69.83;96918.78;4994213;28;20215;-63
2021/09/13 08:44:53;;;;;;;4.63;2.97;;;;;;;20.02;69.95;96913.28;5003848;28;20191;-61
2021/09/13 08:49:46;;;;;;;3.30;3.00;;;;;;;20.83;66.05;96931.75;4995849;28;20275;-61
2021/09/13 08:52:12;;;;;;;3.20;2.90;;;;;;;21.20;65.84;96924.81;5001129;28;20183;-62
2021/09/13 08:54:39;;;;;;;3.88;2.92;;;;;;;21.42;64.02;96920.44;5004196;28;20345;-61
2021/09/13 08:57:06;;;;;;;6.80;3.10;;;;;;;20.75;65.65;96930.50;5009008;28;20648;-62
2021/09/13 08:59:37;;;;;;;3.05;2.70;;;;;;;20.79;65.13;96933.38;4998950;28;20211;-61
2021/09/13 09:02:03;;;;;;;3.33;2.85;;;;;;;20.31;66.86;96929.97;5005024;28;20234;-61
2021/09/13 09:04:29;;;;;;;4.03;3.05;;;;;;;20.09;67.25;96932.38;5003132;28;20258;-61
2021/09/13 09:07:06;;;;;;;3.20;2.90;;;;;;;20.97;65.74;96935.25;5011179;28;20263;-62
2021/09/13 09:09:32;;;;;;;2.85;2.63;;;;;;;21.50;64.10;96932.31;5001020;28;20183;-62
2021/09/13 09:12:01;;;;;;;2.60;2.40;;;;;;;21.85;63.05;96925.56;5009837;28;20193;-62
2021/09/13 09:14:28;;;;;;;2.60;2.28;;;;;;;22.22;60.70;96933.44;5007870;28;20640;-61
2021/09/13 09:16:59;;;;;;;2.58;2.38;;;;;;;22.08;60.96;96929.16;5004534;28;20544;-62
2021/09/13 09:19:24;;;;;;;2.35;1.95;;;;;;;22.17;60.72;96928.19;5005604;28;20222;-62
2021/09/13 09:21:50;;;;;;;2.50;2.30;;;;;;;22.25;59.98;96924.81;5011417;28;20207;-65
2021/09/13 09:24:16;;;;;;;1.73;1.63;;;;;;;22.40;59.26;96926.41;5009023;28;20190;-62
2021/09/13 09:27:00;;;;;;;1.95;1.85;;;;;;;22.60;58.36;96917.94;5005761;28;20278;-62
2021/09/13 09:29:27;;;;;;;3.35;2.20;;;;;;;22.48;56.66;96924.88;5003865;28;20175;-62
2021/09/13 09:31:56;;;;;;;2.42;2.05;;;;;;;22.49;57.76;96910.44;5008090;28;20266;-62
2021/09/13 09:34:23;;;;;;;2.53;2.15;;;;;;;22.01;58.39;96910.91;5007426;28;20234;-64
2021/09/13 09:36:57;;;;;;;2.58;2.38;;;;;;;21.73;58.57;96919.94;5004358;28;20183;-62
2021/09/13 09:39:28;;;;;;;2.28;1.92;;;;;;;21.97;58.72;96913.34;5004212;28;20219;-61
2021/09/13 09:41:56;;;;;;;2.30;2.20;;;;;;;21.75;58.82;96910.53;5008465;28;20235;-61
2021/09/13 09:44:22;;;;;;;2.75;2.33;;;;;;;21.81;59.20;96913.91;5003175;28;20192;-62
2021/09/13 09:46:48;;;;;;;2.72;2.53;;;;;;;21.94;59.00;96913.13;4997171;28;20283;-62
2021/09/13 09:49:15;;;;;;;2.83;2.50;;;;;;;21.72;58.96;96905.78;4999523;28;20315;-62
2021/09/13 09:51:49;;;;;;;2.65;2.40;;;;;;;21.85;59.35;96913.00;5009668;28;20246;-60
2021/09/13 09:54:18;;;;;;;3.15;2.65;;;;;;;21.93;59.78;96915.00;5005864;28;20194;-60
2021/09/13 09:56:46;;;;;;;2.75;2.55;;;;;;;21.72;59.70;96916.47;5000111;28;20279;-60
2021/09/13 09:59:12;;;;;;;2.63;2.42;;;;;;;21.67;60.80;96913.09;4998682;28;20272;-60
2021/09/13 10:01:57;;;;;;;2.60;2.40;;;;;;;22.06;60.67;96915.34;5014276;28;20217;-61
2021/09/13 10:04:25;;;;;;;2.78;2.58;;;;;;;21.67;60.55;96913.09;5002872;28;20216;-60
2021/09/13 10:06:59;;;;;;;3.35;2.50;;;;;;;21.77;60.59;96908.38;5010121;28;20191;-60
2021/09/13 10:09:30;;;;;;;3.40;2.53;;;;;;;22.03;59.98;96905.25;5000520;28;20223;-60
2021/09/13 10:12:00;;;;;;;2.60;2.50;;;;;;;22.19;60.25;96906.50;5004100;28;20482;-60
2021/09/13 10:14:29;;;;;;;3.47;2.65;;;;;;;22.21;60.82;96907.03;5003364;28;20203;-60
2021/09/13 10:16:55;;;;;;;2.80;2.50;;;;;;;21.96;60.88;96909.09;5011309;28;20576;-60
2021/09/13 10:19:23;;;;;;;4.22;3.00;;;;;;;21.86;61.39;96895.91;5001655;28;20280;-60
2021/09/13 10:21:50;;;;;;;2.90;2.70;;;;;;;21.91;61.57;96898.47;5007469;28;20183;-60
2021/09/13 10:24:19;;;;;;;2.90;2.47;;;;;;;22.19;61.37;96898.50;5004436;28;20274;-60
2021/09/13 10:26:48;;;;;;;5.05;2.92;;;;;;;22.51;59.96;96898.38;5003663;28;20608;-63
2021/09/13 10:29:16;;;;;;;7.10;3.03;;;;;;;22.74;59.40;96894.69;4996221;28;20198;-61
2021/09/13 10:31:41;;;;;;;3.75;3.00;;;;;;;22.54;60.08;96891.63;5009313;28;20265;-61
2021/09/13 10:34:21;;;;;;;4.53;2.90;;;;;;;22.62;60.33;96888.25;5008606;28;20284;-63
2021/09/13 10:36:59;;;;;;;3.42;3.13;;;;;;;22.58;59.59;96885.38;4999455;28;20191;-60
2021/09/13 10:40:01;;;;;;;3.33;3.03;;;;;;;22.72;59.37;96882.72;5004412;28;20222;-61
2021/09/13 10:42:44;;;;;;;2.50;2.30;;;;;;;22.79;59.75;96875.84;4998461;28;20199;-64
2021/09/13 10:45:12;;;;;;;3.08;2.88;;;;;;;22.92;60.46;96881.44;5011483;28;20168;-64
2021/09/13 10:47:50;;;;;;;3.10;2.80;;;;;;;22.91;59.45;96875.31;5003932;28;20196;-61
2021/09/13 10:50:32;;;;;;;3.42;3.13;;;;;;;22.71;60.04;96873.91;5005104;28;20187;-61
2021/09/13 10:52:58;;;;;;;3.30;3.03;;;;;;;22.34;60.92;96874.19;4998024;28;20204;-61
2021/09/13 10:55:30;;;;;;;3.30;3.00;;;;;;;22.62;60.90;96867.69;5013163;28;20249;-61
2021/09/13 10:57:56;;;;;;;4.05;3.45;;;;;;;22.96;58.91;96864.50;5006203;28;20220;-61
2021/09/13 11:00:50;;;;;;;3.55;3.35;;;;;;;23.06;58.68;96860.81;5006150;28;20346;-61
2021/09/13 11:03:34;;;;;;;3.40;3.10;;;;;;;23.44;58.07;96871.91;4999068;28;20287;-61
2021/09/13 11:06:10;;;;;;;3.00;2.80;;;;;;;23.54;57.78;96866.31;5007965;28;20180;-66
2021/09/13 11:08:48;;;;;;;3.40;3.10;;;;;;;23.76;56.61;96854.75;5008029;28;20223;-61
2021/09/13 11:11:19;;;;;;;3.33;3.03;;;;;;;23.69;56.85;96854.41;5006676;28;20484;-61
2021/09/13 11:13:56;;;;;;;3.10;2.72;;;;;;;23.76;57.13;96860.09;5002370;28;20547;-61
2021/09/13 11:16:22;;;;;;;3.60;3.30;;;;;;;23.13;58.20;96858.47;5002160;28;20179;-61
2021/09/13 11:18:48;;;;;;;3.63;3.33;;;;;;;22.96;58.33;96850.38;5008616;28;20180;-61
2021/09/13 11:21:25;;;;;;;3.58;3.28;;;;;;;22.98;58.56;96853.50;5008537;28;20191;-61
2021/09/13 11:24:07;;;;;;;3.10;2.90;;;;;;;22.84;59.07;96848.25;4998704;28;20595;-61
2021/09/13 11:26:35;;;;;;;3.33;3.03;;;;;;;22.54;60.54;96841.66;5000801;28;20183;-61
2021/09/13 11:29:06;;;;;;;4.07;3.67;;;;;;;22.93;58.49;96840.25;5000466;28;20661;-61
2021/09/13 11:31:39;;;;;;;3.08;2.60;;;;;;;23.20;58.17;96842.78;5002083;28;20199;-63
2021/09/13 11:34:19;;;;;;;3.08;2.80;;;;;;;23.90;56.95;96832.16;5002879;28;20235;-61
2021/09/13 11:37:09;;;;;;;3.05;2.85;;;;;;;23.95;56.55;96834.69;5001696;28;20175;-61